createdAt,value
2023-03-28T00:00:30.876Z,102325.31
2023-03-28T00:02:32.621Z,102318.09
2023-03-28T00:04:34.751Z,102320.72
2023-03-28T00:06:38.485Z,102325.16
2023-03-28T00:08:40.758Z,102313.84
2023-03-28T00:10:42.597Z,102313.41
2023-03-28T00:12:44.303Z,102316.13
2023-03-28T00:14:46.349Z,102313.91
2023-03-28T00:16:48.224Z,102310.91
2023-03-28T00:18:51.072Z,102312.69
2023-03-28T00:20:53.728Z,102314.44
2023-03-28T00:22:56.363Z,102313.22
2023-03-28T00:25:01.092Z,102313.84
2023-03-28T00:27:02.816Z,102306.88
2023-03-28T00:29:06.969Z,102296.09
2023-03-28T00:31:08.967Z,102296.88
2023-03-28T00:33:11.590Z,102291.59
2023-03-28T00:35:13.999Z,102289.19
2023-03-28T00:37:17.486Z,102288.75
2023-03-28T00:39:19.272Z,102293.69
2023-03-28T00:41:22.551Z,102292.44
2023-03-28T00:43:37.753Z,102287.00
2023-03-28T00:45:39.738Z,102278.69
2023-03-28T00:47:51.792Z,102284.44
2023-03-28T00:50:14.668Z,102273.38
2023-03-28T00:52:18.120Z,102269.16
2023-03-28T00:54:21.063Z,102267.00
2023-03-28T00:56:25.505Z,102276.38
2023-03-28T00:58:32.059Z,102278.47
2023-03-28T01:00:34.999Z,102261.38
2023-03-28T01:02:36.984Z,102265.69
2023-03-28T01:04:49.544Z,102268.28
2023-03-28T01:06:57.264Z,102257.56
2023-03-28T01:09:00.963Z,102259.88
2023-03-28T01:11:03.442Z,102262.44
2023-03-28T01:13:05.856Z,102250.50
2023-03-28T01:15:09.035Z,102249.88
2023-03-28T01:17:10.992Z,102235.94
2023-03-28T01:19:22.066Z,102235.38
2023-03-28T01:21:32.733Z,102234.50
2023-03-28T01:24:12.624Z,102229.13
2023-03-28T01:26:42.332Z,102223.03
2023-03-28T01:29:04.900Z,102215.41
2023-03-28T01:31:22.570Z,102214.00
2023-03-28T01:33:42.792Z,102217.84
2023-03-28T01:36:10.727Z,102213.13
2023-03-28T01:38:41.681Z,102212.09
2023-03-28T01:40:59.883Z,102202.72
2023-03-28T01:43:35.609Z,102193.88
2023-03-28T01:45:37.266Z,102195.28
2023-03-28T01:48:02.035Z,102194.78
2023-03-28T01:50:23.092Z,102185.69
2023-03-28T01:52:34.010Z,102182.06
2023-03-28T01:54:41.345Z,102179.75
2023-03-28T01:56:47.314Z,102179.41
2023-03-28T01:58:51.912Z,102178.16
2023-03-28T02:01:02.635Z,102166.06
2023-03-28T02:03:26.586Z,102168.94
2023-03-28T02:05:32.551Z,102170.31
2023-03-28T02:07:35.034Z,102170.41
2023-03-28T02:09:38.922Z,102166.31
2023-03-28T02:11:42.120Z,102161.69
2023-03-28T02:13:47.306Z,102161.41
2023-03-28T02:16:03.237Z,102155.81
2023-03-28T02:18:10.318Z,102154.56
2023-03-28T02:20:17.133Z,102151.13
2023-03-28T02:22:47.966Z,102145.81
2023-03-28T02:24:52.019Z,102146.91
2023-03-28T02:26:55.129Z,102136.94
2023-03-28T02:28:58.379Z,102136.56
2023-03-28T02:31:01.731Z,102145.22
2023-03-28T02:33:06.355Z,102135.03
2023-03-28T02:35:09.221Z,102143.66
2023-03-28T02:37:17.076Z,102137.88
2023-03-28T02:39:26.332Z,102130.50
2023-03-28T02:41:33.989Z,102134.03
2023-03-28T02:43:52.576Z,102120.84
2023-03-28T02:46:22.436Z,102123.63
2023-03-28T02:48:51.424Z,102130.81
2023-03-28T02:51:25.321Z,102118.00
2023-03-28T02:53:51.678Z,102114.25
2023-03-28T02:56:06.603Z,102104.09
2023-03-28T02:58:21.334Z,102096.03
2023-03-28T03:00:23.426Z,102094.06
2023-03-28T03:02:25.230Z,102087.59
2023-03-28T03:04:26.994Z,102087.84
2023-03-28T03:06:28.686Z,102076.69
2023-03-28T03:08:31.142Z,102081.53
2023-03-28T03:10:32.936Z,102074.88
2023-03-28T03:12:36.078Z,102074.78
2023-03-28T03:14:39.062Z,102067.25
2023-03-28T03:16:43.230Z,102068.81
2023-03-28T03:18:44.977Z,102059.81
2023-03-28T03:20:46.617Z,102061.94
2023-03-28T03:22:48.339Z,102054.75
2023-03-28T03:24:51.216Z,102050.81
2023-03-28T03:26:53.188Z,102048.31
2023-03-28T03:28:55.368Z,102039.44
2023-03-28T03:30:57.163Z,102045.47
2023-03-28T03:33:00.772Z,102034.34
2023-03-28T03:35:02.873Z,102025.94
2023-03-28T03:37:04.778Z,102025.63
2023-03-28T03:39:06.537Z,102017.78
2023-03-28T03:41:08.337Z,102014.25
2023-03-28T03:43:10.038Z,102011.94
2023-03-28T03:45:12.000Z,102011.13
2023-03-28T03:47:13.907Z,101996.47
2023-03-28T03:49:15.648Z,102001.13
2023-03-28T03:51:18.026Z,101995.06
2023-03-28T03:53:19.725Z,102002.41
2023-03-28T03:55:21.416Z,101998.09
2023-03-28T03:57:23.124Z,101994.88
2023-03-28T03:59:24.926Z,101996.47
2023-03-28T04:01:30.308Z,101998.25
2023-03-28T04:03:33.960Z,101992.56
2023-03-28T04:05:35.719Z,101988.56
2023-03-28T04:07:37.532Z,101992.72
2023-03-28T04:09:39.483Z,101979.69
2023-03-28T04:11:41.236Z,101988.56
2023-03-28T04:13:42.996Z,101983.19
2023-03-28T04:15:54.078Z,101981.09
2023-03-28T04:17:57.083Z,101983.59
2023-03-28T04:19:58.818Z,101991.19
2023-03-28T04:22:00.527Z,101984.47
2023-03-28T04:24:02.658Z,101969.91
2023-03-28T04:26:04.560Z,101968.56
2023-03-28T04:28:06.184Z,101974.31
2023-03-28T04:30:09.686Z,101974.94
2023-03-28T04:32:13.028Z,101972.16
2023-03-28T04:34:16.037Z,101969.91
2023-03-28T04:36:18.471Z,101966.53
2023-03-28T04:38:21.799Z,101972.63
2023-03-28T04:40:25.046Z,101973.91
2023-03-28T04:42:26.808Z,101976.53
2023-03-28T04:44:29.653Z,101973.72
2023-03-28T04:46:31.664Z,101977.72
2023-03-28T04:48:33.425Z,101976.94
2023-03-28T04:50:35.966Z,101974.06
2023-03-28T04:52:37.927Z,101980.78
2023-03-28T04:54:39.618Z,101967.75
2023-03-28T04:56:41.607Z,101964.94
2023-03-28T04:58:43.443Z,101964.78
2023-03-28T05:00:48.377Z,101966.22
2023-03-28T05:02:55.073Z,101958.38
2023-03-28T05:04:56.789Z,101959.25
2023-03-28T05:06:58.470Z,101953.56
2023-03-28T05:09:01.026Z,101957.75
2023-03-28T05:11:02.857Z,101949.56
2023-03-28T05:13:05.101Z,101961.56
2023-03-28T05:15:07.296Z,101957.09
2023-03-28T05:17:09.055Z,101964.63
2023-03-28T05:19:10.834Z,101957.91
2023-03-28T05:21:12.555Z,101958.44
2023-03-28T05:23:14.387Z,101954.28
2023-03-28T05:25:16.472Z,101953.16
2023-03-28T05:27:18.158Z,101948.53
2023-03-28T05:29:19.832Z,101952.94
2023-03-28T05:31:21.681Z,101947.88
2023-03-28T05:33:23.427Z,101949.63
2023-03-28T05:35:25.284Z,101942.84
2023-03-28T05:37:28.676Z,101940.84
2023-03-28T05:39:30.612Z,101942.53
2023-03-28T05:41:32.284Z,101944.63
2023-03-28T05:43:33.971Z,101940.19
2023-03-28T05:45:35.991Z,101942.13
2023-03-28T05:47:37.702Z,101940.34
2023-03-28T05:49:39.394Z,101947.00
2023-03-28T05:51:41.068Z,101943.41
2023-03-28T05:53:43.712Z,101939.31
2023-03-28T05:55:46.803Z,101931.00
2023-03-28T05:57:48.684Z,101930.75
2023-03-28T05:59:50.586Z,101943.00
2023-03-28T06:01:52.871Z,101936.03
2023-03-28T06:03:55.399Z,101938.69
2023-03-28T06:05:57.375Z,101932.59
2023-03-28T06:07:59.241Z,101925.72
2023-03-28T06:10:01.894Z,101926.28
2023-03-28T06:12:05.161Z,101922.28
2023-03-28T06:14:07.499Z,101920.75
2023-03-28T06:16:09.433Z,101914.84
2023-03-28T06:18:11.369Z,101915.16
2023-03-28T06:20:13.469Z,101914.66
2023-03-28T06:22:15.344Z,101913.41
2023-03-28T06:24:17.443Z,101919.31
2023-03-28T06:26:19.675Z,101916.50
2023-03-28T06:28:21.578Z,101922.34
2023-03-28T06:30:23.290Z,101911.00
2023-03-28T06:32:25.281Z,101902.19
2023-03-28T06:34:27.331Z,101899.41
2023-03-28T06:36:29.136Z,101900.75
2023-03-28T06:38:31.170Z,101895.16
2023-03-28T06:40:33.134Z,101892.19
2023-03-28T06:42:34.854Z,101890.50
2023-03-28T06:44:36.625Z,101894.72
2023-03-28T06:46:39.122Z,101889.78
2023-03-28T06:48:40.939Z,101893.78
2023-03-28T06:50:50.178Z,101898.69
2023-03-28T06:52:51.953Z,101888.25
2023-03-28T06:54:53.662Z,101895.00
2023-03-28T06:56:55.713Z,101898.34
2023-03-28T06:58:57.389Z,101891.47
2023-03-28T07:01:00.325Z,101895.84
2023-03-28T07:03:02.425Z,101885.88
2023-03-28T07:05:04.355Z,101895.94
2023-03-28T07:07:20.266Z,101887.03
2023-03-28T07:09:22.051Z,101883.28
2023-03-28T07:11:23.919Z,101877.00
2023-03-28T07:13:26.047Z,101875.13
2023-03-28T07:15:27.763Z,101873.81
2023-03-28T07:17:29.483Z,101869.09
2023-03-28T07:19:31.344Z,101866.94
2023-03-28T07:21:33.042Z,101860.69
2023-03-28T07:23:35.463Z,101870.59
2023-03-28T07:25:37.187Z,101866.69
2023-03-28T07:27:39.061Z,101864.78
2023-03-28T07:29:40.734Z,101861.59
2023-03-28T07:31:42.848Z,101863.88
2023-03-28T07:33:44.574Z,101867.44
2023-03-28T07:35:51.191Z,101865.97
2023-03-28T07:37:52.904Z,101869.94
2023-03-28T07:39:56.682Z,101867.44
2023-03-28T07:41:58.406Z,101868.47
2023-03-28T07:44:00.483Z,101861.13
2023-03-28T07:46:08.240Z,101868.59
2023-03-28T07:48:10.129Z,101868.75
2023-03-28T07:50:12.316Z,101870.22
2023-03-28T07:52:14.578Z,101857.13
2023-03-28T07:54:17.958Z,101857.78
2023-03-28T07:56:22.574Z,101848.47
2023-03-28T07:58:24.494Z,101859.50
2023-03-28T08:00:27.718Z,101858.91
2023-03-28T08:02:29.497Z,101859.19
2023-03-28T08:04:31.501Z,101855.88
2023-03-28T08:06:34.221Z,101852.94
2023-03-28T08:08:36.669Z,101849.88
2023-03-28T08:10:38.380Z,101850.16
2023-03-28T08:12:40.083Z,101851.03
2023-03-28T08:14:41.997Z,101851.03
2023-03-28T08:16:45.421Z,101854.84
2023-03-28T08:18:54.393Z,101845.00
2023-03-28T08:21:03.432Z,101853.31
2023-03-28T08:23:06.294Z,101847.66
2023-03-28T08:25:09.480Z,101847.81
2023-03-28T08:27:11.758Z,101851.34
2023-03-28T08:29:13.586Z,101878.16
2023-03-28T08:31:17.119Z,101849.25
2023-03-28T08:33:19.130Z,101849.25
2023-03-28T08:35:20.983Z,101840.56
2023-03-28T08:37:22.697Z,101841.44
2023-03-28T08:39:24.505Z,101826.56
2023-03-28T08:41:41.167Z,101829.19
2023-03-28T08:43:57.240Z,101826.94
2023-03-28T08:46:01.407Z,101823.91
2023-03-28T08:48:08.203Z,101820.88
2023-03-28T08:50:23.927Z,101825.78
2023-03-28T08:52:26.486Z,101814.69
2023-03-28T08:54:44.847Z,101816.97
2023-03-28T08:56:51.446Z,101810.50
2023-03-28T08:59:11.289Z,101816.44
2023-03-28T09:01:13.402Z,101811.44
2023-03-28T09:03:20.022Z,101809.81
2023-03-28T09:06:04.856Z,101805.81
2023-03-28T09:08:20.080Z,101809.91
2023-03-28T09:10:34.103Z,101809.97
2023-03-28T09:12:52.354Z,101817.66
2023-03-28T09:15:16.379Z,101808.53
2023-03-28T09:17:27.387Z,101820.53
2023-03-28T09:19:53.833Z,101810.41
2023-03-28T09:22:14.724Z,101807.16
2023-03-28T09:24:29.860Z,101817.25
2023-03-28T09:26:38.907Z,101800.16
2023-03-28T09:28:52.702Z,101806.19
2023-03-28T09:30:57.617Z,101798.03
2023-03-28T09:33:03.332Z,101808.63
2023-03-28T09:35:17.029Z,101802.44
2023-03-28T09:37:39.397Z,101797.31
2023-03-28T09:39:49.559Z,101809.00
2023-03-28T09:42:12.568Z,101801.69
2023-03-28T09:44:16.967Z,101797.47
2023-03-28T09:46:30.330Z,101799.06
2023-03-28T09:48:36.572Z,101807.03
2023-03-28T09:50:38.290Z,101806.50
2023-03-28T09:52:40.548Z,101796.06
2023-03-28T09:54:42.444Z,101807.72
2023-03-28T09:56:45.745Z,101805.34
2023-03-28T09:59:05.200Z,101795.31
2023-03-28T10:01:30.666Z,101800.88
2023-03-28T10:03:33.075Z,101800.00
2023-03-28T10:05:37.042Z,101813.78
2023-03-28T10:07:44.817Z,101800.19
2023-03-28T10:09:51.139Z,101805.28
2023-03-28T10:11:59.388Z,101801.31
2023-03-28T10:14:01.796Z,101808.66
2023-03-28T10:16:06.366Z,101804.09
2023-03-28T10:18:08.428Z,101803.22
2023-03-28T10:20:32.876Z,101803.38
2023-03-28T10:22:37.702Z,101813.47
2023-03-28T10:24:40.816Z,101801.41
2023-03-28T10:26:42.676Z,101822.31
2023-03-28T10:28:44.585Z,101811.38
2023-03-28T10:30:53.831Z,101813.44
2023-03-28T10:33:17.749Z,101820.63
2023-03-28T10:35:26.601Z,101807.22
2023-03-28T10:37:31.951Z,101808.84
2023-03-28T10:39:33.806Z,101808.47
2023-03-28T10:41:35.533Z,101814.72
2023-03-28T10:43:42.225Z,101821.09
2023-03-28T10:45:59.815Z,101799.47
2023-03-28T10:48:08.070Z,101808.78
2023-03-28T10:50:25.664Z,101808.41
2023-03-28T10:52:30.241Z,101804.34
2023-03-28T10:54:46.823Z,101801.28
2023-03-28T10:57:09.012Z,101801.22
2023-03-28T10:59:56.188Z,101788.41
2023-03-28T11:02:12.886Z,101782.44
2023-03-28T11:04:24.384Z,101782.88
2023-03-28T11:07:18.216Z,101779.53
2023-03-28T11:09:31.856Z,101792.41
2023-03-28T11:11:59.266Z,101771.75
2023-03-28T11:14:15.757Z,101756.19
2023-03-28T11:16:44.228Z,101751.06
2023-03-28T11:19:18.571Z,101742.13
2023-03-28T11:21:41.049Z,101737.19
2023-03-28T11:23:51.521Z,101734.72
2023-03-28T11:26:20.879Z,101735.00
2023-03-28T11:28:37.027Z,101725.34
2023-03-28T11:30:42.693Z,101749.06
2023-03-28T11:33:19.472Z,101747.03
2023-03-28T11:35:32.787Z,101746.00
2023-03-28T11:37:44.401Z,101727.84
2023-03-28T11:40:03.605Z,101739.06
2023-03-28T11:42:10.441Z,101723.91
2023-03-28T11:44:31.770Z,101733.13
2023-03-28T11:46:39.287Z,101732.00
2023-03-28T11:49:01.245Z,101732.09
2023-03-28T11:51:06.647Z,101769.06
2023-03-28T11:53:16.660Z,101760.28
2023-03-28T11:55:27.745Z,101743.97
2023-03-28T11:57:35.835Z,101750.47
2023-03-28T11:59:37.626Z,101742.66
2023-03-28T12:01:49.758Z,101746.72
2023-03-28T12:04:10.030Z,101724.47
2023-03-28T12:06:27.152Z,101709.03
2023-03-28T12:08:36.239Z,101688.97
2023-03-28T12:10:38.300Z,101687.09
2023-03-28T12:12:59.729Z,101687.59
2023-03-28T12:15:18.156Z,101673.59
2023-03-28T12:17:45.398Z,101673.06
2023-03-28T12:19:48.692Z,101667.34
2023-03-28T12:21:57.225Z,101664.41
2023-03-28T12:23:59.658Z,101650.50
2023-03-28T12:26:32.534Z,101627.94
2023-03-28T12:28:43.581Z,101639.72
2023-03-28T12:30:56.786Z,101630.41
2023-03-28T12:33:24.990Z,101636.28
2023-03-28T12:35:54.925Z,101638.44
2023-03-28T12:38:32.410Z,101631.28
2023-03-28T12:41:07.513Z,101621.84
2023-03-28T12:43:14.999Z,101618.94
2023-03-28T12:45:29.553Z,101623.06
2023-03-28T12:47:37.702Z,101618.75
2023-03-28T12:49:45.615Z,101616.44
2023-03-28T12:51:52.186Z,101610.28
2023-03-28T12:54:21.814Z,101605.91
2023-03-28T12:56:23.694Z,101607.84
2023-03-28T12:58:33.716Z,101585.44
2023-03-28T13:00:57.034Z,101600.44
2023-03-28T13:03:08.204Z,101585.75
2023-03-28T13:05:32.082Z,101593.16
2023-03-28T13:08:06.838Z,101589.47
2023-03-28T13:10:50.976Z,101598.00
2023-03-28T13:13:11.294Z,101592.94
2023-03-28T13:15:12.953Z,101599.56
2023-03-28T13:17:26.406Z,101586.75
2023-03-28T13:19:46.631Z,101571.69
2023-03-28T13:21:56.592Z,101568.31
2023-03-28T13:23:58.304Z,101562.69
2023-03-28T13:26:02.824Z,101550.84
2023-03-28T13:28:11.217Z,101559.56
2023-03-28T13:30:22.151Z,101562.09
2023-03-28T13:32:24.922Z,101558.22
2023-03-28T13:34:33.954Z,101547.44
2023-03-28T13:36:36.117Z,101542.88
2023-03-28T13:38:55.795Z,101543.41
2023-03-28T13:41:06.437Z,101539.22
2023-03-28T13:43:28.291Z,101531.06
2023-03-28T13:45:30.122Z,101523.44
2023-03-28T13:47:40.346Z,101530.25
2023-03-28T13:49:49.835Z,101533.81
2023-03-28T13:52:00.428Z,101535.19
2023-03-28T13:54:02.215Z,101543.78
2023-03-28T13:56:09.471Z,101552.44
2023-03-28T13:58:13.431Z,101553.75
2023-03-28T14:00:20.628Z,101534.22
2023-03-28T14:02:46.174Z,101521.03
2023-03-28T14:05:06.038Z,101522.78
2023-03-28T14:07:13.331Z,101517.28
2023-03-28T14:09:29.688Z,101516.56
2023-03-28T14:11:41.841Z,101517.75
2023-03-28T14:13:44.547Z,101495.66
2023-03-28T14:16:00.196Z,101494.47
2023-03-28T14:18:03.666Z,101493.03
2023-03-28T14:20:07.627Z,101516.94
2023-03-28T14:22:18.635Z,101487.13
2023-03-28T14:24:26.923Z,101484.88
2023-03-28T14:26:32.236Z,101484.03
2023-03-28T14:28:34.410Z,101481.38
2023-03-28T14:30:41.247Z,101483.47
2023-03-28T14:32:57.456Z,101476.09
2023-03-28T14:35:18.952Z,101462.09
2023-03-28T14:37:22.804Z,101460.84
2023-03-28T14:39:26.719Z,101460.88
2023-03-28T14:41:32.538Z,101458.53
2023-03-28T14:43:34.931Z,101457.19
2023-03-28T14:45:52.896Z,101464.44
2023-03-28T14:47:56.416Z,101441.91
2023-03-28T14:50:00.771Z,101443.41
2023-03-28T14:52:03.934Z,101430.81
2023-03-28T14:54:05.916Z,101429.78
2023-03-28T14:56:11.261Z,101421.34
2023-03-28T14:58:14.023Z,101420.88
2023-03-28T15:00:22.224Z,101409.59
2023-03-28T15:02:34.018Z,101414.81
2023-03-28T15:04:36.871Z,101414.16
2023-03-28T15:06:39.552Z,101413.19
2023-03-28T15:08:42.038Z,101412.91
2023-03-28T15:10:51.077Z,101389.59
2023-03-28T15:13:04.587Z,101381.59
2023-03-28T15:15:07.610Z,101387.31
2023-03-28T15:17:18.954Z,101371.28
2023-03-28T15:19:27.218Z,101365.78
2023-03-28T15:21:28.978Z,101358.22
2023-03-28T15:23:49.345Z,101350.81
2023-03-28T15:26:03.336Z,101332.66
2023-03-28T15:28:10.622Z,101350.91
2023-03-28T15:30:17.156Z,101359.41
2023-03-28T15:32:20.666Z,101343.38
2023-03-28T15:34:29.058Z,101354.94
2023-03-28T15:36:32.565Z,101358.72
2023-03-28T15:38:41.284Z,101371.66
2023-03-28T15:40:48.993Z,101357.47
2023-03-28T15:42:51.367Z,101354.06
2023-03-28T15:44:58.968Z,101361.22
2023-03-28T15:47:07.284Z,101338.63
2023-03-28T15:49:11.428Z,101325.66
2023-03-28T15:51:18.985Z,101320.22
2023-03-28T15:53:22.373Z,101305.03
2023-03-28T15:55:27.116Z,101306.25
2023-03-28T15:57:30.670Z,101321.59
2023-03-28T15:59:42.456Z,101314.78
2023-03-28T16:01:44.541Z,101305.22
2023-03-28T16:03:46.706Z,101318.91
2023-03-28T16:06:01.798Z,101319.16
2023-03-28T16:08:34.293Z,101328.41
2023-03-28T16:10:37.752Z,101319.34
2023-03-28T16:12:40.570Z,101316.41
2023-03-28T16:14:47.089Z,101310.59
2023-03-28T16:16:58.309Z,101319.53
2023-03-28T16:19:03.450Z,101317.69
2023-03-28T16:21:05.448Z,101324.88
2023-03-28T16:23:08.107Z,101314.25
2023-03-28T16:25:09.972Z,101323.31
2023-03-28T16:27:11.786Z,101314.25
2023-03-28T16:29:13.895Z,101302.78
2023-03-28T16:31:15.893Z,101286.97
2023-03-28T16:33:19.886Z,101293.84
2023-03-28T16:35:22.806Z,101282.75
2023-03-28T16:37:24.724Z,101291.66
2023-03-28T16:39:26.708Z,101293.13
2023-03-28T16:41:28.453Z,101294.59
2023-03-28T16:43:30.432Z,101299.22
2023-03-28T16:45:32.466Z,101288.59
2023-03-28T16:47:34.128Z,101289.00
2023-03-28T16:49:35.979Z,101280.63
2023-03-28T16:51:38.169Z,101279.47
2023-03-28T16:53:40.497Z,101284.94
2023-03-28T16:55:50.882Z,101275.44
2023-03-28T16:57:52.627Z,101265.47
2023-03-28T16:59:54.411Z,101277.03
2023-03-28T17:01:56.192Z,101278.47
2023-03-28T17:03:58.152Z,101276.06
2023-03-28T17:06:05.534Z,101259.81
2023-03-28T17:08:07.453Z,101251.56
2023-03-28T17:10:10.042Z,101249.81
2023-03-28T17:12:11.806Z,101237.69
2023-03-28T17:14:13.573Z,101237.69
2023-03-28T17:16:15.394Z,101241.19
2023-03-28T17:18:17.357Z,101257.72
2023-03-28T17:20:19.747Z,101257.88
2023-03-28T17:22:21.499Z,101247.41
2023-03-28T17:24:24.087Z,101239.53
2023-03-28T17:26:26.464Z,101235.31
2023-03-28T17:28:29.314Z,101244.34
2023-03-28T17:30:32.195Z,101237.72
2023-03-28T17:32:34.427Z,101253.25
2023-03-28T17:34:36.709Z,101251.66
2023-03-28T17:36:38.413Z,101263.78
2023-03-28T17:38:40.297Z,101247.59
2023-03-28T17:40:49.131Z,101249.41
2023-03-28T17:42:51.331Z,101249.16
2023-03-28T17:44:54.691Z,101257.72
2023-03-28T17:46:57.656Z,101255.53
2023-03-28T17:48:59.514Z,101268.31
2023-03-28T17:51:01.239Z,101254.63
2023-03-28T17:53:03.228Z,101251.66
2023-03-28T17:55:06.362Z,101250.94
2023-03-28T17:57:08.442Z,101265.00
2023-03-28T17:59:11.730Z,101254.41
2023-03-28T18:01:16.806Z,101264.66
2023-03-28T18:03:18.668Z,101262.66
2023-03-28T18:05:22.455Z,101272.09
2023-03-28T18:07:24.719Z,101269.56
2023-03-28T18:09:27.524Z,101260.75
2023-03-28T18:11:29.208Z,101259.97
2023-03-28T18:13:31.432Z,101255.38
2023-03-28T18:15:33.574Z,101252.53
2023-03-28T18:17:35.416Z,101256.41
2023-03-28T18:19:37.267Z,101241.25
2023-03-28T18:21:39.027Z,101253.28
2023-03-28T18:23:41.584Z,101246.13
2023-03-28T18:25:56.593Z,101238.25
2023-03-28T18:27:58.428Z,101232.56
2023-03-28T18:30:08.139Z,101232.66
2023-03-28T18:32:09.880Z,101229.09
2023-03-28T18:34:11.983Z,101234.03
2023-03-28T18:36:14.538Z,101243.03
2023-03-28T18:38:16.416Z,101239.59
2023-03-28T18:40:18.682Z,101242.06
2023-03-28T18:42:20.385Z,101245.16
2023-03-28T18:44:22.362Z,101244.69
2023-03-28T18:46:29.837Z,101242.06
2023-03-28T18:48:31.904Z,101244.78
2023-03-28T18:50:33.892Z,101240.81
2023-03-28T18:52:36.216Z,101255.34
2023-03-28T18:54:38.542Z,101245.25
2023-03-28T18:56:40.459Z,101248.59
2023-03-28T18:58:42.211Z,101244.44
2023-03-28T19:00:44.053Z,101242.09
2023-03-28T19:02:47.951Z,101239.31
2023-03-28T19:04:49.884Z,101241.59
2023-03-28T19:06:52.587Z,101253.50
2023-03-28T19:08:54.943Z,101267.69
2023-03-28T19:10:59.205Z,101245.44
2023-03-28T19:13:01.083Z,101247.00
2023-03-28T19:15:04.585Z,101248.69
2023-03-28T19:17:07.336Z,101246.88
2023-03-28T19:19:09.041Z,101245.50
2023-03-28T19:21:11.989Z,101249.97
2023-03-28T19:23:14.241Z,101264.09
2023-03-28T19:25:16.420Z,101254.06
2023-03-28T19:27:18.153Z,101248.34
2023-03-28T19:29:19.940Z,101255.31
2023-03-28T19:31:25.663Z,101248.84
2023-03-28T19:33:28.672Z,101249.31
2023-03-28T19:35:30.529Z,101265.81
2023-03-28T19:37:32.313Z,101272.00
2023-03-28T19:39:33.949Z,101260.84
2023-03-28T19:41:36.684Z,101263.63
2023-03-28T19:43:38.454Z,101262.31
2023-03-28T19:45:41.432Z,101262.59
2023-03-28T19:47:43.147Z,101269.44
2023-03-28T19:49:46.482Z,101267.13
2023-03-28T19:51:48.417Z,101268.03
2023-03-28T19:53:50.283Z,101277.84
2023-03-28T19:55:58.885Z,101271.22
2023-03-28T19:58:02.536Z,101286.78
2023-03-28T20:00:06.592Z,101299.78
2023-03-28T20:02:12.400Z,101282.34
2023-03-28T20:04:14.727Z,101285.53
2023-03-28T20:06:17.175Z,101290.00
2023-03-28T20:08:19.190Z,101296.56
2023-03-28T20:10:21.959Z,101293.94
2023-03-28T20:12:24.058Z,101282.56
2023-03-28T20:14:25.876Z,101284.66
2023-03-28T20:16:27.675Z,101277.50
2023-03-28T20:18:29.814Z,101276.06
2023-03-28T20:20:32.017Z,101266.88
2023-03-28T20:22:35.295Z,101279.25
2023-03-28T20:24:37.527Z,101271.09
2023-03-28T20:26:39.997Z,101272.72
2023-03-28T20:28:41.950Z,101275.97
2023-03-28T20:30:47.687Z,101283.44
2023-03-28T20:32:51.032Z,101277.22
2023-03-28T20:34:52.740Z,101276.72
2023-03-28T20:36:56.828Z,101278.66
2023-03-28T20:39:01.128Z,101271.47
2023-03-28T20:41:03.161Z,101271.38
2023-03-28T20:43:05.212Z,101268.19
2023-03-28T20:45:09.154Z,101264.66
2023-03-28T20:47:11.552Z,101271.22
2023-03-28T20:49:13.736Z,101273.09
2023-03-28T20:51:22.998Z,101269.63
2023-03-28T20:53:25.237Z,101256.25
2023-03-28T20:55:29.612Z,101256.59
2023-03-28T20:57:31.939Z,101256.16
2023-03-28T20:59:34.842Z,101256.81
2023-03-28T21:01:46.019Z,101264.56
2023-03-28T21:03:51.172Z,101254.53
2023-03-28T21:05:53.242Z,101251.19
2023-03-28T21:07:55.713Z,101256.19
2023-03-28T21:09:59.616Z,101247.47
2023-03-28T21:12:01.432Z,101254.28
2023-03-28T21:14:04.587Z,101255.72
2023-03-28T21:16:06.879Z,101245.59
2023-03-28T21:18:09.747Z,101239.72
2023-03-28T21:20:11.647Z,101239.59
2023-03-28T21:22:13.447Z,101230.84
2023-03-28T21:24:15.135Z,101220.38
2023-03-28T21:26:18.841Z,101220.47
2023-03-28T21:28:20.544Z,101220.72
2023-03-28T21:30:22.212Z,101222.72
2023-03-28T21:32:24.118Z,101225.78
2023-03-28T21:34:30.828Z,101212.31
2023-03-28T21:36:32.761Z,101205.56
2023-03-28T21:38:35.647Z,101196.94
2023-03-28T21:40:37.591Z,101190.38
2023-03-28T21:42:39.248Z,101190.41
2023-03-28T21:44:41.771Z,101191.25
2023-03-28T21:46:43.803Z,101196.91
2023-03-28T21:48:48.055Z,101192.59
2023-03-28T21:50:53.856Z,101191.34
2023-03-28T21:52:55.732Z,101195.50
2023-03-28T21:54:57.406Z,101208.19
2023-03-28T21:56:59.246Z,101200.66
2023-03-28T21:59:01.064Z,101202.59
2023-03-28T22:01:04.361Z,101203.78
2023-03-28T22:03:06.960Z,101192.91
2023-03-28T22:05:22.019Z,101203.34
2023-03-28T22:07:30.283Z,101196.00
2023-03-28T22:09:34.106Z,101198.34
2023-03-28T22:11:35.807Z,101201.03
2023-03-28T22:13:38.843Z,101197.66
2023-03-28T22:15:50.428Z,101194.31
2023-03-28T22:17:58.243Z,101195.94
2023-03-28T22:20:02.289Z,101200.19
2023-03-28T22:22:04.569Z,101205.75
2023-03-28T22:24:13.481Z,101210.94
2023-03-28T22:26:16.132Z,101216.09
2023-03-28T22:28:19.102Z,101213.56
2023-03-28T22:30:21.355Z,101231.72
2023-03-28T22:32:23.988Z,101223.88
2023-03-28T22:34:26.562Z,101226.44
2023-03-28T22:36:28.909Z,101219.91
2023-03-28T22:38:31.197Z,101224.03
2023-03-28T22:40:33.470Z,101221.56
2023-03-28T22:42:35.878Z,101227.63
2023-03-28T22:44:46.325Z,101233.34
2023-03-28T22:46:49.920Z,101229.13
2023-03-28T22:48:58.765Z,101230.50
2023-03-28T22:51:01.883Z,101229.75
2023-03-28T22:53:04.685Z,101225.50
2023-03-28T22:55:06.930Z,101230.09
2023-03-28T22:57:08.786Z,101226.06
2023-03-28T22:59:11.666Z,101219.59
2023-03-28T23:01:13.425Z,101227.25
2023-03-28T23:03:16.033Z,101219.75
2023-03-28T23:05:18.187Z,101221.41
2023-03-28T23:07:20.965Z,101219.75
2023-03-28T23:09:25.936Z,101223.97
2023-03-28T23:11:29.071Z,101226.25
2023-03-28T23:13:30.764Z,101216.22
2023-03-28T23:15:32.744Z,101227.25
2023-03-28T23:17:34.493Z,101213.78
2023-03-28T23:19:36.233Z,101212.50
2023-03-28T23:21:38.077Z,101209.19
2023-03-28T23:23:41.070Z,101211.03
2023-03-28T23:25:44.702Z,101213.06
2023-03-28T23:27:46.720Z,101218.34
2023-03-28T23:29:48.446Z,101225.75
2023-03-28T23:31:50.817Z,101210.72
2023-03-28T23:33:52.489Z,101208.34
2023-03-28T23:35:54.321Z,101207.78
2023-03-28T23:37:56.062Z,101204.66
2023-03-28T23:39:57.843Z,101203.22
2023-03-28T23:41:59.680Z,101198.09
2023-03-28T23:44:01.752Z,101192.94
2023-03-28T23:46:04.509Z,101188.84
2023-03-28T23:48:09.389Z,101187.22
2023-03-28T23:50:11.842Z,101189.75
2023-03-28T23:52:13.898Z,101178.41
2023-03-28T23:54:18.144Z,101177.38
2023-03-28T23:56:19.782Z,101163.97
2023-03-28T23:58:21.643Z,101163.88
